createdAt,value
2023-01-23T00:01:32.386Z,2.95
2023-01-23T00:04:01.001Z,2.85
2023-01-23T00:06:29.514Z,2.82
2023-01-23T00:08:58.008Z,2.84
2023-01-23T00:11:30.030Z,2.85
2023-01-23T00:13:58.829Z,2.85
2023-01-23T00:16:29.699Z,2.94
2023-01-23T00:18:58.261Z,3.04
2023-01-23T00:21:28.369Z,2.95
2023-01-23T00:23:58.209Z,2.95
2023-01-23T00:26:33.289Z,2.93
2023-01-23T00:29:01.415Z,2.84
2023-01-23T00:31:32.033Z,3.01
2023-01-23T00:34:01.930Z,3.06
2023-01-23T00:36:31.966Z,2.97
2023-01-23T00:39:00.297Z,2.91
2023-01-23T00:41:30.055Z,2.99
2023-01-23T00:43:58.010Z,2.99
2023-01-23T00:46:26.557Z,2.97
2023-01-23T00:48:54.525Z,3.03
2023-01-23T00:51:22.793Z,3.12
2023-01-23T00:53:51.107Z,3.10
2023-01-23T00:56:19.083Z,3.02
2023-01-23T00:58:48.594Z,2.92
2023-01-23T01:01:17.546Z,3.02
2023-01-23T01:03:46.510Z,3.01
2023-01-23T01:06:14.678Z,2.96
2023-01-23T01:08:42.662Z,2.93
2023-01-23T01:11:10.571Z,2.96
2023-01-23T01:13:38.664Z,3.02
2023-01-23T01:16:12.556Z,2.95
2023-01-23T01:18:41.070Z,3.06
2023-01-23T01:21:13.487Z,3.05
2023-01-23T01:23:45.410Z,3.02
2023-01-23T01:26:14.471Z,3.18
2023-01-23T01:28:43.759Z,3.14
2023-01-23T01:31:15.121Z,3.12
2023-01-23T01:33:44.604Z,3.09
2023-01-23T01:36:13.421Z,3.15
2023-01-23T01:38:42.247Z,3.03
2023-01-23T01:41:12.193Z,3.10
2023-01-23T01:43:40.620Z,3.17
2023-01-23T01:46:18.204Z,3.16
2023-01-23T01:48:52.232Z,3.16
2023-01-23T01:51:25.203Z,3.10
2023-01-23T01:54:09.022Z,3.19
2023-01-23T01:56:42.547Z,3.14
2023-01-23T01:59:12.325Z,3.12
2023-01-23T02:01:45.379Z,3.05
2023-01-23T02:04:13.549Z,3.20
2023-01-23T02:06:41.874Z,3.10
2023-01-23T02:09:16.326Z,3.10
2023-01-23T02:11:45.373Z,2.96
2023-01-23T02:14:14.579Z,3.02
2023-01-23T02:16:50.520Z,3.24
2023-01-23T02:19:32.436Z,3.12
2023-01-23T02:22:10.338Z,3.19
2023-01-23T02:24:45.859Z,3.12
2023-01-23T02:27:15.335Z,3.01
2023-01-23T02:29:45.803Z,3.21
2023-01-23T02:32:13.924Z,3.13
2023-01-23T02:34:43.882Z,2.97
2023-01-23T02:37:12.191Z,2.97
2023-01-23T02:39:40.751Z,2.98
2023-01-23T02:42:15.262Z,2.99
2023-01-23T02:44:48.299Z,3.02
2023-01-23T02:47:19.198Z,3.07
2023-01-23T02:49:47.214Z,3.09
2023-01-23T02:52:15.952Z,3.09
2023-01-23T02:54:43.987Z,3.05
2023-01-23T02:57:12.092Z,2.95
2023-01-23T02:59:59.409Z,2.98
2023-01-23T03:02:27.858Z,2.85
2023-01-23T03:04:55.841Z,2.85
2023-01-23T03:07:23.845Z,2.94
2023-01-23T03:09:51.952Z,2.82
2023-01-23T03:12:19.942Z,2.82
2023-01-23T03:14:53.801Z,2.74
2023-01-23T03:17:22.498Z,2.69
2023-01-23T03:19:50.849Z,2.60
2023-01-23T03:22:18.848Z,2.84
2023-01-23T03:24:46.864Z,2.78
2023-01-23T03:27:15.198Z,2.70
2023-01-23T03:30:03.038Z,3.02
2023-01-23T03:32:31.398Z,2.86
2023-01-23T03:35:00.104Z,2.81
2023-01-23T03:37:28.174Z,2.78
2023-01-23T03:40:15.440Z,2.73
2023-01-23T03:42:44.399Z,2.81
2023-01-23T03:45:16.872Z,2.73
2023-01-23T03:47:45.038Z,2.72
2023-01-23T03:50:13.283Z,2.76
2023-01-23T03:52:41.419Z,2.82
2023-01-23T03:55:10.904Z,2.82
2023-01-23T03:57:40.268Z,2.89
2023-01-23T04:00:19.754Z,2.90
2023-01-23T04:03:01.656Z,2.95
2023-01-23T04:05:30.589Z,2.98
2023-01-23T04:07:58.701Z,2.94
2023-01-23T04:10:27.435Z,2.85
2023-01-23T04:13:00.480Z,2.99
2023-01-23T04:15:32.835Z,3.14
2023-01-23T04:18:02.135Z,3.20
2023-01-23T04:20:30.921Z,3.08
2023-01-23T04:22:59.703Z,3.01
2023-01-23T04:25:30.462Z,2.97
2023-01-23T04:27:58.629Z,3.08
2023-01-23T04:30:26.942Z,2.94
2023-01-23T04:32:57.694Z,2.94
2023-01-23T04:35:25.754Z,3.08
2023-01-23T04:37:53.844Z,3.18
2023-01-23T04:40:22.243Z,3.06
2023-01-23T04:42:54.936Z,2.90
2023-01-23T04:45:46.616Z,3.37
2023-01-23T04:48:54.826Z,2.87
2023-01-23T04:51:24.336Z,3.01
2023-01-23T04:53:52.450Z,2.91
2023-01-23T04:56:20.521Z,3.10
2023-01-23T04:58:49.938Z,3.22
2023-01-23T05:01:23.327Z,3.09
2023-01-23T05:03:57.416Z,3.06
2023-01-23T05:06:25.638Z,3.06
2023-01-23T05:08:56.561Z,2.99
2023-01-23T05:11:30.467Z,3.16
2023-01-23T05:13:59.297Z,3.06
2023-01-23T05:16:27.645Z,3.17
2023-01-23T05:19:15.960Z,3.16
2023-01-23T05:21:44.577Z,3.21
2023-01-23T05:24:17.345Z,3.20
2023-01-23T05:26:46.346Z,3.08
2023-01-23T05:29:15.121Z,2.99
2023-01-23T05:31:53.015Z,3.08
2023-01-23T05:34:40.716Z,2.94
2023-01-23T05:37:17.839Z,3.02
2023-01-23T05:39:50.565Z,2.90
2023-01-23T05:42:19.611Z,2.85
2023-01-23T05:44:53.808Z,3.03
2023-01-23T05:47:48.377Z,3.06
2023-01-23T05:50:22.765Z,3.14
2023-01-23T05:52:51.080Z,3.08
2023-01-23T05:55:20.186Z,3.42
2023-01-23T05:57:50.129Z,3.16
2023-01-23T06:00:53.536Z,3.47
2023-01-23T06:03:44.099Z,3.19
2023-01-23T06:06:32.724Z,3.16
2023-01-23T06:09:00.967Z,3.21
2023-01-23T06:11:28.997Z,3.16
2023-01-23T06:13:57.787Z,3.23
2023-01-23T06:16:25.914Z,3.06
2023-01-23T06:18:54.353Z,3.09
2023-01-23T06:21:22.326Z,3.18
2023-01-23T06:23:51.752Z,3.15
2023-01-23T06:26:20.035Z,3.10
2023-01-23T06:28:48.203Z,3.28
2023-01-23T06:31:16.295Z,3.29
2023-01-23T06:33:51.621Z,3.27
2023-01-23T06:36:22.254Z,3.43
2023-01-23T06:38:52.361Z,3.32
2023-01-23T06:41:25.975Z,3.20
2023-01-23T06:43:55.463Z,3.28
2023-01-23T06:46:27.126Z,3.43
2023-01-23T06:48:55.738Z,3.27
2023-01-23T06:51:24.490Z,3.36
2023-01-23T06:53:54.411Z,3.33
2023-01-23T06:56:23.838Z,3.39
2023-01-23T06:58:53.677Z,3.44
2023-01-23T07:01:30.801Z,3.39
2023-01-23T07:04:19.325Z,3.38
2023-01-23T07:06:50.972Z,3.29
2023-01-23T07:34:29.934Z,3.16
2023-01-23T07:36:58.008Z,3.26
2023-01-23T07:39:26.358Z,3.25
2023-01-23T07:41:54.619Z,3.29
2023-01-23T07:44:24.317Z,3.14
2023-01-23T07:46:52.563Z,3.26
2023-01-23T07:49:21.109Z,3.37
2023-01-23T07:51:50.524Z,3.29
2023-01-23T07:54:18.762Z,3.29
2023-01-23T07:56:46.919Z,3.28
2023-01-23T07:59:15.407Z,3.39
2023-01-23T08:01:43.398Z,3.61
2023-01-23T08:04:11.689Z,3.58
2023-01-23T08:06:39.896Z,3.32
2023-01-23T08:09:09.565Z,3.15
2023-01-23T08:11:37.570Z,3.33
2023-01-23T08:14:05.738Z,3.39
2023-01-23T08:16:33.891Z,3.51
2023-01-23T08:19:02.296Z,3.42
2023-01-23T08:21:30.433Z,3.41
2023-01-23T08:23:58.779Z,3.67
2023-01-23T08:26:29.052Z,3.51
2023-01-23T08:28:57.137Z,3.39
2023-01-23T08:31:25.243Z,3.36
2023-01-23T08:33:53.566Z,3.37
2023-01-23T08:36:21.728Z,3.68
2023-01-23T08:38:49.737Z,3.37
2023-01-23T08:41:17.865Z,3.32
2023-01-23T08:43:47.672Z,3.66
2023-01-23T08:46:15.781Z,3.60
2023-01-23T08:48:44.277Z,3.66
2023-01-23T08:51:14.410Z,3.58
2023-01-23T08:53:44.279Z,3.65
2023-01-23T08:56:16.991Z,3.63
2023-01-23T08:58:45.924Z,3.50
2023-01-23T09:01:18.013Z,3.46
2023-01-23T09:03:46.358Z,3.53
2023-01-23T09:06:15.365Z,3.65
2023-01-23T09:08:44.271Z,3.52
2023-01-23T09:11:14.760Z,3.41
2023-01-23T09:13:43.619Z,3.38
2023-01-23T09:16:12.077Z,3.49
2023-01-23T09:18:41.950Z,3.47
2023-01-23T09:21:12.678Z,3.43
2023-01-23T09:23:41.518Z,3.64
2023-01-23T09:26:12.102Z,3.74
2023-01-23T09:28:43.040Z,3.56
2023-01-23T09:31:17.543Z,3.70
2023-01-23T09:33:50.049Z,3.68
2023-01-23T09:36:18.336Z,3.78
2023-01-23T09:38:48.947Z,3.81
2023-01-23T09:41:20.712Z,3.68
2023-01-23T09:43:59.271Z,3.76
2023-01-23T09:46:34.016Z,3.90
2023-01-23T09:49:12.255Z,3.75
2023-01-23T09:51:52.797Z,3.72
2023-01-23T09:54:36.729Z,3.90
2023-01-23T09:57:13.557Z,3.99
2023-01-23T09:59:58.781Z,3.97
2023-01-23T10:02:29.645Z,4.06
2023-01-23T10:05:02.921Z,3.71
2023-01-23T10:07:46.307Z,3.72
2023-01-23T10:10:50.637Z,3.90
2023-01-23T10:13:24.291Z,3.68
2023-01-23T10:16:15.237Z,3.72
2023-01-23T10:18:49.537Z,3.62
2023-01-23T10:21:27.071Z,3.94
2023-01-23T10:24:05.000Z,3.85
2023-01-23T10:26:40.142Z,3.82
2023-01-23T10:29:16.969Z,3.90
2023-01-23T10:31:49.645Z,4.10
2023-01-23T10:34:25.050Z,3.86
2023-01-23T10:37:08.803Z,4.07
2023-01-23T10:39:46.766Z,4.20
2023-01-23T10:42:19.394Z,4.07
2023-01-23T10:44:47.835Z,4.02
2023-01-23T10:47:22.699Z,3.94
2023-01-23T10:49:51.368Z,3.90
2023-01-23T10:52:36.633Z,4.09
2023-01-23T10:55:07.533Z,4.27
2023-01-23T10:57:48.584Z,4.03
2023-01-23T11:00:26.244Z,4.11
2023-01-23T11:02:54.903Z,4.20
2023-01-23T11:05:51.874Z,4.27
2023-01-23T11:08:29.134Z,4.13
2023-01-23T11:11:19.966Z,4.15
2023-01-23T11:13:50.396Z,4.28
2023-01-23T11:16:21.630Z,4.22
2023-01-23T11:18:54.769Z,3.94
2023-01-23T11:21:24.426Z,4.04
2023-01-23T11:24:10.180Z,4.16
2023-01-23T11:26:39.866Z,3.95
2023-01-23T11:29:30.576Z,4.10
2023-01-23T11:32:03.008Z,3.95
2023-01-23T11:34:39.493Z,3.90
2023-01-23T11:37:16.761Z,3.95
2023-01-23T11:39:54.939Z,3.97
2023-01-23T11:42:28.376Z,4.05
2023-01-23T11:45:00.156Z,4.09
2023-01-23T11:47:55.305Z,4.32
2023-01-23T11:50:49.894Z,3.93
2023-01-23T11:53:41.087Z,4.20
2023-01-23T11:56:26.062Z,4.32
2023-01-23T11:59:24.852Z,3.95
2023-01-23T12:02:12.470Z,4.10
2023-01-23T12:05:07.885Z,4.08
2023-01-23T12:07:47.287Z,4.01
2023-01-23T12:10:24.752Z,3.90
2023-01-23T12:13:12.062Z,4.07
2023-01-23T12:15:48.368Z,4.06
2023-01-23T12:18:34.220Z,4.08
2023-01-23T12:21:10.664Z,4.29
2023-01-23T12:23:57.637Z,4.16
2023-01-23T12:26:29.655Z,4.07
2023-01-23T12:29:31.558Z,4.21
2023-01-23T12:32:13.593Z,4.40
2023-01-23T12:35:03.736Z,4.24
2023-01-23T12:37:52.306Z,4.09
2023-01-23T12:40:26.242Z,4.09
2023-01-23T12:43:00.745Z,4.18
2023-01-23T12:45:32.404Z,4.29
2023-01-23T12:48:07.983Z,4.29
2023-01-23T12:50:42.086Z,4.44
2023-01-23T12:53:13.568Z,4.33
2023-01-23T12:55:54.171Z,4.46
2023-01-23T12:58:23.512Z,4.34
2023-01-23T13:01:02.903Z,4.41
2023-01-23T13:03:52.616Z,4.29
2023-01-23T13:06:52.089Z,4.47
2023-01-23T13:09:28.819Z,4.40
2023-01-23T13:12:11.600Z,4.42
2023-01-23T13:17:38.763Z,4.54
2023-01-23T13:20:47.571Z,4.45
2023-01-23T13:23:27.448Z,4.77
2023-01-23T13:26:29.156Z,4.65
2023-01-23T13:29:02.167Z,4.48
2023-01-23T13:31:46.915Z,4.46
2023-01-23T13:34:42.052Z,4.52
2023-01-23T13:37:51.405Z,4.58
2023-01-23T13:40:25.141Z,4.65
2023-01-23T13:42:53.429Z,4.52
2023-01-23T13:45:27.587Z,4.54
2023-01-23T14:21:41.419Z,4.44
2023-01-23T14:24:23.397Z,4.58
2023-01-23T14:26:53.400Z,4.45
2023-01-23T14:29:23.108Z,4.42
2023-01-23T14:31:52.194Z,4.39
2023-01-23T14:34:21.800Z,4.43
2023-01-23T14:36:53.526Z,4.54
2023-01-23T14:39:27.323Z,4.40
2023-01-23T14:41:59.069Z,4.30
2023-01-23T14:44:31.637Z,4.35
2023-01-23T14:47:01.819Z,4.40
2023-01-23T14:49:32.656Z,4.35
2023-01-23T14:52:02.213Z,4.50
2023-01-23T14:54:36.718Z,4.33
2023-01-23T14:57:09.633Z,4.31
2023-01-23T14:59:41.473Z,4.33
2023-01-23T15:02:27.541Z,4.46
2023-01-23T15:05:09.641Z,4.51
2023-01-23T15:07:44.925Z,4.35
2023-01-23T15:10:20.643Z,4.36
2023-01-23T15:12:58.952Z,4.25
2023-01-23T15:15:28.262Z,4.21
2023-01-23T15:17:59.863Z,4.16
2023-01-23T15:20:38.441Z,4.34
2023-01-23T15:23:28.629Z,4.35
2023-01-23T15:26:25.135Z,4.45
2023-01-23T15:28:55.839Z,4.32
2023-01-23T15:31:28.336Z,4.24
2023-01-23T15:33:58.429Z,4.22
2023-01-23T15:36:29.136Z,4.42
2023-01-23T15:38:59.819Z,4.24
2023-01-23T15:41:46.551Z,4.28
2023-01-23T15:44:16.415Z,4.07
2023-01-23T15:46:44.594Z,4.10
2023-01-23T15:49:24.389Z,4.02
2023-01-23T15:51:53.723Z,4.07
2023-01-23T15:54:25.605Z,4.05
2023-01-23T15:57:07.042Z,4.10
2023-01-23T15:59:37.285Z,4.00
2023-01-23T16:02:05.984Z,4.09
2023-01-23T16:04:34.210Z,4.27
2023-01-23T16:07:07.507Z,4.10
2023-01-23T16:09:38.639Z,4.40
2023-01-23T16:12:17.932Z,4.30
2023-01-23T16:14:46.627Z,4.19
2023-01-23T16:17:16.989Z,4.25
2023-01-23T16:19:45.915Z,4.01
2023-01-23T16:22:17.167Z,4.07
2023-01-23T16:24:46.562Z,4.02
2023-01-23T16:27:23.115Z,4.18
2023-01-23T16:29:51.264Z,3.98
2023-01-23T16:32:20.221Z,3.97
2023-01-23T16:34:49.074Z,4.00
2023-01-23T16:37:19.927Z,4.08
2023-01-23T16:39:48.773Z,4.36
2023-01-23T16:42:22.699Z,4.05
2023-01-23T16:44:51.682Z,4.02
2023-01-23T16:47:20.092Z,4.08
2023-01-23T16:49:53.619Z,3.99
2023-01-23T16:52:27.540Z,4.09
2023-01-23T16:54:56.363Z,4.20
2023-01-23T16:57:28.375Z,3.96
2023-01-23T16:59:56.601Z,4.20
2023-01-23T17:02:30.576Z,3.88
2023-01-23T17:04:58.724Z,4.00
2023-01-23T17:07:26.766Z,3.95
2023-01-23T17:09:55.108Z,4.02
2023-01-23T17:12:28.606Z,4.10
2023-01-23T17:14:57.142Z,4.10
2023-01-23T17:17:30.532Z,3.81
2023-01-23T17:19:59.088Z,4.13
2023-01-23T17:22:30.654Z,4.19
2023-01-23T17:24:58.883Z,4.01
2023-01-23T17:27:28.369Z,3.76
2023-01-23T17:29:56.589Z,3.95
2023-01-23T17:32:30.594Z,3.78
2023-01-23T17:35:01.825Z,4.16
2023-01-23T17:37:30.965Z,3.95
2023-01-23T17:39:59.026Z,4.15
2023-01-23T17:42:28.905Z,3.87
2023-01-23T17:44:56.979Z,3.79
2023-01-23T17:47:25.806Z,4.05
2023-01-23T17:49:55.380Z,3.79
2023-01-23T17:52:24.924Z,3.73
2023-01-23T17:54:54.486Z,3.79
2023-01-23T17:57:22.990Z,3.93
2023-01-23T17:59:55.653Z,3.71
2023-01-23T18:02:28.619Z,3.83
2023-01-23T18:04:57.213Z,3.77
2023-01-23T18:07:25.333Z,3.78
2023-01-23T18:09:55.509Z,3.67
2023-01-23T18:12:31.924Z,3.78
2023-01-23T18:15:12.898Z,3.77
2023-01-23T18:17:48.976Z,3.85
2023-01-23T18:20:23.972Z,3.95
2023-01-23T18:22:52.840Z,3.81
2023-01-23T18:25:24.074Z,3.81
2023-01-23T18:27:55.477Z,3.70
2023-01-23T18:30:47.809Z,3.58
2023-01-23T18:33:46.901Z,3.49
2023-01-23T18:36:28.414Z,3.55
2023-01-23T18:39:10.784Z,3.52
2023-01-23T18:41:44.001Z,3.60
2023-01-23T18:44:20.645Z,3.54
2023-01-23T18:46:50.773Z,3.49
2023-01-23T18:49:31.978Z,3.58
2023-01-23T18:52:09.085Z,4.07
2023-01-23T18:54:43.474Z,3.76
2023-01-23T18:57:23.729Z,3.70
2023-01-23T18:59:58.941Z,3.62
2023-01-23T19:02:37.985Z,3.91
2023-01-23T19:05:23.723Z,4.01
2023-01-23T19:07:52.290Z,3.73
2023-01-23T19:34:21.239Z,3.92
2023-01-23T19:36:49.355Z,3.81
2023-01-23T19:39:17.405Z,3.70
2023-01-23T19:41:48.674Z,3.78
2023-01-23T19:44:18.137Z,3.74
2023-01-23T19:46:46.216Z,3.84
2023-01-23T19:49:15.245Z,3.95
2023-01-23T19:51:44.688Z,4.06
2023-01-23T19:54:14.603Z,3.80
2023-01-23T19:56:42.757Z,4.00
2023-01-23T19:59:11.537Z,3.67
2023-01-23T20:01:41.151Z,3.91
2023-01-23T20:04:13.379Z,3.76
2023-01-23T20:06:42.749Z,3.84
2023-01-23T20:09:14.360Z,3.84
2023-01-23T20:11:42.426Z,3.90
2023-01-23T20:14:10.296Z,3.89
2023-01-23T20:16:40.430Z,3.93
2023-01-23T20:19:08.809Z,3.86
2023-01-23T20:21:36.773Z,4.01
2023-01-23T20:24:07.262Z,3.84
2023-01-23T20:26:37.548Z,3.91
2023-01-23T20:29:06.755Z,4.02
2023-01-23T20:31:36.053Z,3.77
2023-01-23T20:34:04.052Z,3.83
2023-01-23T20:36:32.015Z,3.84
2023-01-23T20:38:59.923Z,3.78
2023-01-23T20:41:27.867Z,3.94
2023-01-23T20:43:57.165Z,3.82
2023-01-23T20:46:26.815Z,3.74
2023-01-23T20:48:54.845Z,3.64
2023-01-23T20:51:22.745Z,3.90
2023-01-23T20:53:50.314Z,3.90
2023-01-23T20:56:19.766Z,3.97
2023-01-23T20:59:07.014Z,3.70
2023-01-23T21:01:52.706Z,3.82
2023-01-23T21:04:21.126Z,3.97
2023-01-23T21:06:49.369Z,3.85
2023-01-23T21:09:17.775Z,3.79
2023-01-23T21:11:45.736Z,3.93
2023-01-23T21:14:14.299Z,4.06
2023-01-23T21:16:43.726Z,4.07
2023-01-23T21:19:11.701Z,3.89
2023-01-23T21:21:40.006Z,3.93
2023-01-23T21:24:08.856Z,3.87
2023-01-23T21:26:37.966Z,3.80
2023-01-23T21:29:07.211Z,3.94
2023-01-23T21:31:37.092Z,4.05
2023-01-23T21:34:09.297Z,3.95
2023-01-23T21:36:38.048Z,4.01
2023-01-23T21:39:09.436Z,4.05
2023-01-23T21:41:38.338Z,3.93
2023-01-23T21:44:06.471Z,3.86
2023-01-23T21:46:34.352Z,4.06
2023-01-23T21:49:02.235Z,3.83
2023-01-23T21:51:32.535Z,3.92
2023-01-23T21:54:00.547Z,3.83
2023-01-23T21:56:28.514Z,3.94
2023-01-23T21:58:56.489Z,3.82
2023-01-23T22:01:36.149Z,4.01
2023-01-23T22:04:06.174Z,3.95
2023-01-23T22:06:36.799Z,3.95
2023-01-23T22:09:05.419Z,3.77
2023-01-23T22:11:33.754Z,4.01
2023-01-23T22:14:01.917Z,3.96
2023-01-23T22:16:46.985Z,4.07
2023-01-23T22:19:16.935Z,3.93
2023-01-23T22:21:46.826Z,3.86
2023-01-23T22:24:15.332Z,4.01
2023-01-23T22:26:43.679Z,3.92
2023-01-23T22:29:12.832Z,4.21
2023-01-23T22:31:40.836Z,4.08
2023-01-23T22:34:08.831Z,4.06
2023-01-23T22:36:36.722Z,3.90
2023-01-23T22:39:06.079Z,4.13
2023-01-23T22:41:34.325Z,3.81
2023-01-23T22:44:02.304Z,3.80
2023-01-23T22:46:32.099Z,3.77
2023-01-23T22:49:00.219Z,3.96
2023-01-23T22:51:29.382Z,4.08
2023-01-23T22:53:58.446Z,3.84
2023-01-23T22:56:29.204Z,3.79
2023-01-23T22:58:57.688Z,3.72
2023-01-23T23:01:27.070Z,3.62
2023-01-23T23:03:57.131Z,3.70
2023-01-23T23:06:25.175Z,3.61
2023-01-23T23:08:53.414Z,3.53
2023-01-23T23:11:23.248Z,3.64
2023-01-23T23:13:52.577Z,3.51
2023-01-23T23:16:23.352Z,3.62
2023-01-23T23:18:52.695Z,3.66
2023-01-23T23:21:23.485Z,3.48
2023-01-23T23:23:52.196Z,3.45
2023-01-23T23:26:20.438Z,3.58
2023-01-23T23:28:48.243Z,3.66
2023-01-23T23:31:17.708Z,3.87
2023-01-23T23:33:45.685Z,3.67
2023-01-23T23:36:13.487Z,3.78
2023-01-23T23:38:41.447Z,3.77
2023-01-23T23:41:12.300Z,3.80
2023-01-23T23:43:40.435Z,3.69
2023-01-23T23:46:09.528Z,3.72
2023-01-23T23:48:39.783Z,3.76
2023-01-23T23:51:10.095Z,3.79
2023-01-23T23:53:38.098Z,3.79
2023-01-23T23:56:07.696Z,3.59
2023-01-23T23:58:36.756Z,3.56
